Time;durP1;ratioP1;P1;durP2;ratioP2;P2;SDS_P1;SDS_P2;PMS_P1;PMS_P2;Temp;Humidity;BMP_temperature;BMP_pressure;BME280_temperature;BME280_humidity;BME280_pressure;Samples;Min_cycle;Max_cycle;Signal;HPM_P1;HPM_P2
2021/12/24 00:00:12;;;;;;;12.32;7.72;;;;;;;12.05;54.91;100150.75;5029952;28;20049;-74
2021/12/24 00:02:39;;;;;;;13.88;8.55;;;;;;;12.04;54.56;100150.88;5028944;28;20496;-74
2021/12/24 00:05:07;;;;;;;12.98;8.15;;;;;;;12.07;54.61;100148.78;5029349;28;20057;-74
2021/12/24 00:07:34;;;;;;;14.35;8.73;;;;;;;12.10;54.94;100137.66;5027523;28;20045;-74
2021/12/24 00:10:02;;;;;;;16.15;8.60;;;;;;;12.12;54.59;100142.94;5029629;28;20558;-74
2021/12/24 00:12:32;;;;;;;14.43;8.38;;;;;;;12.11;55.02;100133.03;5028417;28;20488;-74
2021/12/24 00:15:06;;;;;;;13.93;7.95;;;;;;;12.13;55.05;100129.22;5033690;28;20073;-75
2021/12/24 00:17:35;;;;;;;15.45;8.68;;;;;;;12.14;54.84;100128.22;5028441;28;20111;-74
2021/12/24 00:20:17;;;;;;;13.55;8.15;;;;;;;12.16;55.06;100128.09;5029804;28;20128;-75
2021/12/24 00:36:41;;;;;;;12.10;7.80;;;;;;;12.17;55.63;100116.22;5028192;28;20115;-75
2021/12/24 00:39:07;;;;;;;14.10;7.80;;;;;;;12.20;55.11;100126.81;5027939;28;20046;-75
2021/12/24 00:41:34;;;;;;;13.75;7.88;;;;;;;12.18;55.50;100124.25;5028832;28;20128;-75
2021/12/24 00:44:01;;;;;;;11.80;7.30;;;;;;;12.19;55.24;100112.34;5016188;28;20073;-76
2021/12/24 00:46:28;;;;;;;13.05;8.43;;;;;;;12.21;55.23;100117.66;5028892;28;20048;-75
2021/12/24 00:48:57;;;;;;;11.40;7.78;;;;;;;12.22;55.53;100122.13;5028220;28;20080;-75
2021/12/24 00:51:30;;;;;;;14.27;8.07;;;;;;;12.25;55.63;100112.84;5029463;28;20045;-75
2021/12/24 00:56:42;;;;;;;10.40;6.88;;;;;;;12.24;55.49;100116.56;5028703;28;20104;-75
2021/12/24 00:59:09;;;;;;;13.18;7.97;;;;;;;12.24;55.83;100114.69;5028596;28;20046;-75
2021/12/24 01:01:36;;;;;;;10.80;7.22;;;;;;;12.26;55.42;100098.25;5028652;28;20135;-75
2021/12/24 01:04:03;;;;;;;11.60;8.07;;;;;;;12.25;55.55;100113.72;5027847;28;20045;-75
2021/12/24 01:06:30;;;;;;;10.38;7.40;;;;;;;12.28;55.42;100107.13;5029000;28;20037;-76
2021/12/24 01:08:56;;;;;;;11.80;7.13;;;;;;;12.29;55.84;100117.00;5026021;28;20087;-75
2021/12/24 01:11:23;;;;;;;11.73;8.27;;;;;;;12.29;55.36;100106.13;5028520;28;20134;-75
2021/12/24 01:13:50;;;;;;;11.45;7.22;;;;;;;12.30;55.64;100107.84;5027676;28;20053;-75
2021/12/24 01:16:42;;;;;;;12.60;8.10;;;;;;;12.32;55.72;100109.47;5034586;28;20092;-75
2021/12/24 01:19:12;;;;;;;12.35;8.07;;;;;;;12.32;55.90;100104.03;5022818;28;20083;-75
2021/12/24 01:24:11;;;;;;;11.55;7.28;;;;;;;12.34;55.62;100107.47;5027469;28;20111;-75
2021/12/24 01:27:09;;;;;;;;;;;;;;;12.18;55.71;100110.66;5028518;28;20042;-75
2021/12/24 01:42:53;;;;;;;12.35;7.68;;;;;;;12.41;55.60;100107.81;5025053;28;20431;-75
2021/12/24 01:45:32;;;;;;;11.60;8.13;;;;;;;12.44;56.25;100108.38;5027745;28;20057;-75
2021/12/24 01:48:02;;;;;;;11.65;8.07;;;;;;;12.43;55.76;100105.81;5027261;28;20053;-74
2021/12/24 01:50:32;;;;;;;11.60;7.22;;;;;;;12.45;55.99;100106.53;5026710;28;20099;-74
2021/12/24 01:52:59;;;;;;;13.68;8.20;;;;;;;12.45;55.81;100107.41;5031515;28;20480;-75
2021/12/24 01:55:27;;;;;;;12.18;7.30;;;;;;;12.45;55.74;100104.69;5031563;28;20049;-76
2021/12/24 01:57:53;;;;;;;13.95;7.68;;;;;;;12.47;55.93;100099.97;5013344;28;20053;-76
2021/12/24 02:00:23;;;;;;;12.60;8.20;;;;;;;12.50;55.96;100104.28;5030604;28;20050;-76
2021/12/24 02:02:50;;;;;;;13.07;8.52;;;;;;;12.51;55.86;100106.03;5031574;28;20511;-75
2021/12/24 02:05:18;;;;;;;13.30;8.38;;;;;;;12.55;55.85;100102.03;5030866;28;20138;-75
2021/12/24 02:07:46;;;;;;;12.70;7.80;;;;;;;12.51;56.00;100093.28;5029574;28;20500;-75
2021/12/24 02:10:18;;;;;;;13.13;7.80;;;;;;;12.52;55.61;100094.09;5031813;28;20225;-75
2021/12/24 02:12:46;;;;;;;12.50;7.75;;;;;;;12.50;56.03;100102.44;5031107;28;20060;-75
2021/12/24 02:15:33;;;;;;;11.15;7.75;;;;;;;12.55;56.10;100100.16;5053440;28;20053;-75
2021/12/24 02:28:51;;;;;;;12.07;7.43;;;;;;;12.55;56.10;100086.56;5030801;28;20496;-75
2021/12/24 02:31:22;;;;;;;11.38;7.80;;;;;;;12.60;55.99;100086.13;5031198;28;20069;-75
2021/12/24 02:33:49;;;;;;;13.50;8.77;;;;;;;12.60;56.19;100083.41;5030661;28;20080;-75
2021/12/24 02:36:18;;;;;;;12.90;8.30;;;;;;;12.60;56.13;100074.41;5030297;28;20224;-75
2021/12/24 02:38:45;;;;;;;14.05;8.82;;;;;;;12.62;56.36;100073.25;5030234;28;20128;-75
2021/12/24 02:41:13;;;;;;;15.45;9.82;;;;;;;12.64;56.18;100074.00;5030776;28;20447;-75
2021/12/24 02:43:40;;;;;;;14.27;8.75;;;;;;;12.65;56.19;100064.81;5030529;28;20455;-75
2021/12/24 02:46:16;;;;;;;13.40;8.30;;;;;;;12.66;56.39;100062.97;5033437;28;20050;-75
2021/12/24 02:54:13;;;;;;;13.73;9.20;;;;;;;12.67;56.36;100051.94;5036969;28;20056;-74
2021/12/24 02:56:47;;;;;;;16.83;10.57;;;;;;;12.70;56.20;100048.94;5031085;28;20268;-75
2021/12/24 02:59:15;;;;;;;13.93;9.23;;;;;;;12.69;56.03;100049.94;5022969;28;20045;-75
2021/12/24 03:01:45;;;;;;;16.38;9.57;;;;;;;12.71;56.07;100050.66;5028859;28;20041;-75
2021/12/24 03:04:12;;;;;;;13.27;9.70;;;;;;;12.74;56.32;100049.53;5029163;28;20378;-75
2021/12/24 03:06:44;;;;;;;13.70;8.80;;;;;;;12.75;56.32;100045.81;5030043;28;20053;-75
2021/12/24 03:09:15;;;;;;;12.57;8.13;;;;;;;12.74;56.37;100047.69;5029758;28;20049;-75
2021/12/24 03:11:43;;;;;;;15.68;9.10;;;;;;;12.77;56.46;100041.94;5029116;28;20412;-74
2021/12/24 03:14:11;;;;;;;10.60;7.72;;;;;;;12.75;56.25;100043.97;5028903;28;20151;-74
2021/12/24 03:16:39;;;;;;;12.10;7.88;;;;;;;12.77;56.01;100043.78;5026594;28;20091;-74
2021/12/24 03:19:08;;;;;;;13.82;8.30;;;;;;;12.78;56.09;100050.97;5028908;28;20150;-75
2021/12/24 03:21:46;;;;;;;13.90;8.45;;;;;;;12.80;56.04;100048.97;5028927;28;20049;-74
2021/12/24 03:26:45;;;;;;;10.85;7.10;;;;;;;12.81;56.26;100065.19;5032069;28;20041;-75
2021/12/24 03:29:13;;;;;;;13.07;8.60;;;;;;;12.82;56.20;100055.16;5029828;28;20046;-74
2021/12/24 03:31:42;;;;;;;14.25;8.20;;;;;;;12.83;56.10;100074.09;5029610;28;20076;-75
2021/12/24 03:34:11;;;;;;;12.20;7.93;;;;;;;12.82;56.23;100056.03;5029080;28;20598;-75
2021/12/24 03:36:39;;;;;;;10.82;7.35;;;;;;;12.81;56.05;100056.16;5032165;28;20053;-74
2021/12/24 03:39:07;;;;;;;13.10;7.68;;;;;;;12.85;56.39;100063.03;5028557;28;20045;-74
2021/12/24 03:41:34;;;;;;;14.40;8.23;;;;;;;12.84;56.12;100064.06;5044395;28;20084;-74
2021/12/24 03:44:00;;;;;;;12.35;7.82;;;;;;;12.86;56.26;100059.31;5028449;28;20064;-75
2021/12/24 03:46:37;;;;;;;13.05;7.50;;;;;;;12.84;56.42;100062.22;5032490;28;20087;-74
2021/12/24 03:49:09;;;;;;;11.48;7.05;;;;;;;12.85;56.13;100065.78;5043579;28;20696;-74
2021/12/24 03:51:51;;;;;;;9.60;7.00;;;;;;;12.86;56.31;100048.44;5010563;28;20053;-75
2021/12/24 03:57:03;;;;;;;11.35;7.32;;;;;;;12.85;56.18;100050.28;5029267;28;20140;-74
2021/12/24 03:59:30;;;;;;;11.20;7.70;;;;;;;12.86;55.95;100049.28;5029391;28;20053;-74
2021/12/24 04:01:56;;;;;;;11.23;6.95;;;;;;;12.87;56.34;100042.84;5028167;28;20049;-74
2021/12/24 04:04:23;;;;;;;9.80;6.65;;;;;;;12.87;56.10;100052.88;5028048;28;20528;-74
2021/12/24 04:06:50;;;;;;;11.25;6.40;;;;;;;12.86;56.12;100062.91;5028502;28;20077;-74
2021/12/24 04:09:17;;;;;;;11.40;6.85;;;;;;;12.86;56.16;100046.56;5029145;28;20144;-74
2021/12/24 04:11:44;;;;;;;11.57;7.07;;;;;;;12.87;56.16;100056.47;5028233;28;20130;-74
2021/12/24 04:14:10;;;;;;;10.45;6.85;;;;;;;12.87;56.27;100053.75;5027861;28;20461;-74
2021/12/24 04:16:40;;;;;;;11.55;7.30;;;;;;;12.89;56.28;100062.66;5032151;28;20048;-74
2021/12/24 04:24:51;;;;;;;12.40;7.57;;;;;;;12.88;56.31;100062.78;5028310;28;20072;-74
2021/12/24 04:27:27;;;;;;;12.10;8.23;;;;;;;12.90;56.62;100068.97;5028130;28;20049;-75
2021/12/24 04:30:01;;;;;;;10.18;6.93;;;;;;;12.89;55.99;100069.97;5029249;28;20119;-74
2021/12/24 04:32:46;;;;;;;9.85;6.90;;;;;;;12.86;55.94;100065.63;5026932;28;20084;-74
2021/12/24 04:38:29;;;;;;;12.00;7.22;;;;;;;12.88;56.34;100065.50;5026735;28;20053;-75
2021/12/24 04:52:12;;;;;;;12.35;7.57;;;;;;;12.88;56.11;100065.50;5028775;28;20057;-74
2021/12/24 05:03:03;;;;;;;16.10;9.60;;;;;;;12.89;56.17;100062.66;5027649;28;20057;-74
2021/12/24 05:10:42;;;;;;;17.77;9.45;;;;;;;12.91;56.23;100059.81;5027887;28;20107;-75
2021/12/24 05:13:11;;;;;;;13.55;8.23;;;;;;;12.93;56.00;100064.09;5027323;28;20132;-75
2021/12/24 05:15:40;;;;;;;15.10;8.73;;;;;;;12.94;56.25;100075.84;5032505;28;20046;-75
2021/12/24 05:23:22;;;;;;;13.60;8.27;;;;;;;12.94;55.96;100075.84;5027543;28;20045;-74
2021/12/24 05:25:50;;;;;;;12.60;8.02;;;;;;;12.94;56.24;100082.16;5031556;28;20098;-75
2021/12/24 05:28:20;;;;;;;12.85;7.55;;;;;;;12.96;56.42;100082.03;5031389;28;20148;-74
2021/12/24 05:30:47;;;;;;;13.55;8.55;;;;;;;12.98;56.19;100092.81;5032004;28;20053;-75
2021/12/24 05:33:16;;;;;;;12.63;8.18;;;;;;;12.97;56.14;100086.50;5031260;28;20049;-74
2021/12/24 05:35:44;;;;;;;14.75;8.18;;;;;;;12.98;55.96;100076.44;5030834;28;20706;-75
2021/12/24 05:38:14;;;;;;;11.82;8.30;;;;;;;12.98;56.07;100090.94;5030435;28;20084;-74
2021/12/24 05:40:42;;;;;;;16.10;8.38;;;;;;;12.98;55.98;100084.63;5018041;28;20410;-74
2021/12/24 05:43:08;;;;;;;14.23;8.27;;;;;;;12.99;56.33;100086.34;5031889;28;20053;-74
2021/12/24 05:45:35;;;;;;;13.32;8.30;;;;;;;12.98;56.20;100095.53;5036699;28;20083;-74
2021/12/24 05:48:02;;;;;;;14.75;7.90;;;;;;;13.00;56.12;100093.53;5031085;28;20042;-74
2021/12/24 05:50:29;;;;;;;12.43;7.70;;;;;;;13.00;56.21;100096.25;5013934;28;20128;-74
2021/12/24 05:52:56;;;;;;;14.02;8.15;;;;;;;13.00;56.39;100099.84;5031099;28;20709;-74
2021/12/24 05:55:23;;;;;;;10.60;6.97;;;;;;;13.00;56.39;100102.56;5030731;28;20076;-74
2021/12/24 05:57:50;;;;;;;15.27;8.25;;;;;;;13.02;56.41;100097.81;5030657;28;20072;-74
2021/12/24 06:00:20;;;;;;;12.32;7.95;;;;;;;13.02;56.40;100088.78;5014538;28;20107;-74
2021/12/24 06:02:47;;;;;;;13.68;8.57;;;;;;;13.04;55.87;100095.84;5030602;28;20099;-74
2021/12/24 06:05:14;;;;;;;13.90;7.60;;;;;;;13.04;56.29;100086.78;5030581;28;20053;-74
2021/12/24 06:07:41;;;;;;;14.82;8.07;;;;;;;13.04;56.41;100093.13;5030208;28;20111;-75
2021/12/24 06:10:09;;;;;;;12.48;8.10;;;;;;;13.07;56.00;100092.00;5031253;28;20455;-74
2021/12/24 06:12:36;;;;;;;14.40;9.27;;;;;;;13.07;56.14;100092.00;5030480;28;20092;-75
2021/12/24 06:15:05;;;;;;;13.45;8.73;;;;;;;13.08;55.92;100086.41;5037996;28;20053;-74
2021/12/24 06:17:33;;;;;;;12.23;7.47;;;;;;;13.07;56.48;100087.41;5028878;28;20042;-74
2021/12/24 06:20:00;;;;;;;14.05;7.82;;;;;;;13.08;56.01;100093.72;5031566;28;20441;-74
2021/12/24 06:22:27;;;;;;;12.95;8.50;;;;;;;13.08;56.08;100093.72;5030047;28;20099;-74
2021/12/24 06:24:53;;;;;;;13.55;7.88;;;;;;;13.08;56.49;100104.63;5030464;28;20126;-74
2021/12/24 06:27:20;;;;;;;13.48;8.02;;;;;;;13.09;56.19;100096.31;5030516;28;20111;-74
2021/12/24 06:29:47;;;;;;;13.85;8.23;;;;;;;13.08;56.12;100104.63;5032546;28;20596;-72
2021/12/24 06:32:14;;;;;;;12.02;8.18;;;;;;;13.08;55.85;100110.06;5051615;28;20111;-75
2021/12/24 06:34:41;;;;;;;13.07;7.63;;;;;;;13.10;56.29;100102.59;5030916;28;20123;-74
2021/12/24 06:37:08;;;;;;;14.77;8.80;;;;;;;13.10;56.39;100102.59;5028561;28;20095;-74
2021/12/24 06:39:36;;;;;;;13.63;8.38;;;;;;;13.12;56.15;100103.31;5030850;28;20488;-75
2021/12/24 06:42:03;;;;;;;13.82;8.35;;;;;;;13.14;56.22;100095.91;5029399;28;20103;-75
2021/12/24 06:44:29;;;;;;;16.13;10.07;;;;;;;13.13;55.75;100096.88;5026576;28;20123;-75
2021/12/24 06:46:56;;;;;;;14.02;8.60;;;;;;;13.11;55.92;100098.88;5015432;28;20140;-75
2021/12/24 06:49:23;;;;;;;13.98;8.90;;;;;;;13.15;55.99;100097.66;5030185;28;20121;-75
2021/12/24 06:51:50;;;;;;;12.38;8.18;;;;;;;13.12;56.24;100106.06;5029579;28;20476;-74
2021/12/24 06:54:17;;;;;;;14.98;9.15;;;;;;;13.11;56.20;100107.06;5030228;28;20128;-74
2021/12/24 06:56:45;;;;;;;15.73;9.43;;;;;;;13.11;55.94;100104.31;5029967;28;20048;-75
2021/12/24 06:59:11;;;;;;;14.30;8.52;;;;;;;13.11;56.13;100093.41;5030170;28;20041;-75
2021/12/24 07:01:38;;;;;;;13.85;8.10;;;;;;;13.09;56.00;100088.13;5029624;28;20080;-74
2021/12/24 07:04:05;;;;;;;13.38;8.27;;;;;;;13.12;55.88;100100.59;5027998;28;20087;-75
2021/12/24 07:06:33;;;;;;;11.82;7.75;;;;;;;13.11;55.98;100094.28;5029592;28;20053;-74
2021/12/24 07:08:59;;;;;;;14.90;8.98;;;;;;;13.12;56.24;100101.47;5026779;28;20077;-75
2021/12/24 07:11:26;;;;;;;16.40;9.35;;;;;;;13.11;56.30;100107.91;5029817;28;20570;-75
2021/12/24 07:13:53;;;;;;;12.82;8.15;;;;;;;13.12;56.17;100092.44;5029746;28;20056;-75
2021/12/24 07:16:19;;;;;;;14.40;8.93;;;;;;;13.13;56.24;100105.06;5034761;28;20042;-75
2021/12/24 07:18:46;;;;;;;12.23;7.80;;;;;;;13.11;56.08;100107.91;5028957;28;20091;-74
2021/12/24 07:21:13;;;;;;;14.27;8.50;;;;;;;13.13;55.75;100114.13;5029359;28;20536;-74
2021/12/24 07:23:40;;;;;;;13.63;8.35;;;;;;;13.13;56.00;100121.41;5029728;28;20073;-75
2021/12/24 07:26:07;;;;;;;14.10;8.30;;;;;;;13.14;56.08;100120.44;5028992;28;20073;-75
2021/12/24 07:28:34;;;;;;;13.02;7.85;;;;;;;13.13;56.16;100126.84;5029229;28;20127;-74
2021/12/24 07:31:00;;;;;;;13.50;8.48;;;;;;;13.12;56.06;100128.72;5027988;28;20128;-74
2021/12/24 07:33:27;;;;;;;15.32;8.80;;;;;;;13.11;56.29;100131.56;5028135;28;20286;-74
2021/12/24 07:35:54;;;;;;;12.48;8.10;;;;;;;13.14;56.30;100132.22;5028282;28;20585;-74
2021/12/24 07:38:21;;;;;;;15.90;8.90;;;;;;;13.12;55.96;100131.44;5022204;28;20049;-74
2021/12/24 07:40:47;;;;;;;14.30;8.02;;;;;;;13.11;56.00;100124.25;5029047;28;20562;-75
2021/12/24 07:43:14;;;;;;;16.10;9.00;;;;;;;13.14;56.35;100131.34;5011158;28;20045;-74
2021/12/24 07:45:42;;;;;;;14.32;8.55;;;;;;;13.13;55.93;100132.31;5028176;28;20107;-75
2021/12/24 07:48:15;;;;;;;14.68;8.57;;;;;;;13.12;56.21;100127.84;5011230;28;20129;-74
2021/12/24 07:53:14;;;;;;;14.52;9.38;;;;;;;13.13;56.24;100138.66;5028682;28;20573;-74
2021/12/24 07:55:41;;;;;;;15.43;8.68;;;;;;;13.13;56.38;100143.22;5030002;28;20045;-74
2021/12/24 07:58:08;;;;;;;15.27;8.63;;;;;;;13.11;56.32;100137.91;5025425;28;20041;-75
2021/12/24 08:00:37;;;;;;;13.13;8.75;;;;;;;13.15;56.15;100127.63;5028971;28;20045;-75
2021/12/24 08:03:04;;;;;;;14.45;8.45;;;;;;;13.12;56.30;100128.72;5028912;28;20505;-74
2021/12/24 08:05:34;;;;;;;16.27;8.82;;;;;;;13.13;56.36;100119.59;5038738;28;20103;-75
2021/12/24 08:08:02;;;;;;;14.63;8.45;;;;;;;13.12;56.18;100127.84;5010116;28;20493;-75
2021/12/24 08:10:31;;;;;;;15.00;8.52;;;;;;;13.13;56.35;100124.13;5028865;28;20447;-74
2021/12/24 08:12:57;;;;;;;15.02;8.68;;;;;;;13.13;56.42;100121.41;5026696;28;20056;-75
2021/12/24 08:15:24;;;;;;;15.20;8.45;;;;;;;13.12;56.42;100120.53;5022384;28;20481;-75
2021/12/24 08:17:51;;;;;;;13.63;8.15;;;;;;;13.13;56.31;100124.13;5028202;28;20073;-75
2021/12/24 08:20:23;;;;;;;14.52;8.23;;;;;;;13.12;56.25;100125.13;5028865;28;20501;-74
2021/12/24 08:22:52;;;;;;;13.38;7.95;;;;;;;13.14;56.27;100126.75;5026894;28;20107;-75
2021/12/24 08:25:19;;;;;;;13.85;8.10;;;;;;;13.14;56.22;100129.50;5027801;28;20463;-75
2021/12/24 08:27:46;;;;;;;14.85;8.05;;;;;;;13.12;56.63;100123.28;5043076;28;20112;-75
2021/12/24 08:30:13;;;;;;;15.60;8.38;;;;;;;13.14;56.22;100121.31;5029001;28;20041;-75
2021/12/24 08:32:42;;;;;;;13.27;7.85;;;;;;;13.14;56.19;100107.69;5014521;28;20049;-75
2021/12/24 08:35:15;;;;;;;14.75;8.25;;;;;;;13.17;56.57;100104.69;5028777;28;20377;-75
2021/12/24 08:37:43;;;;;;;13.95;7.78;;;;;;;13.16;56.34;100107.56;5023454;28;20091;-75
2021/12/24 08:40:10;;;;;;;16.45;8.43;;;;;;;13.15;55.94;100105.81;5029175;28;20045;-75
2021/12/24 08:42:37;;;;;;;13.18;8.27;;;;;;;13.16;55.92;100104.81;5027345;28;20049;-75
2021/12/24 08:45:05;;;;;;;14.07;8.43;;;;;;;13.17;56.46;100101.09;5035397;28;20458;-75
2021/12/24 08:47:32;;;;;;;14.50;8.63;;;;;;;13.18;56.27;100100.06;5009292;28;20056;-75
2021/12/24 08:49:58;;;;;;;15.98;8.90;;;;;;;13.17;56.15;100104.69;5028476;28;20077;-75
2021/12/24 08:52:25;;;;;;;13.70;7.80;;;;;;;13.16;56.30;100108.41;5023891;28;20060;-75
2021/12/24 08:54:52;;;;;;;14.95;8.85;;;;;;;13.16;56.23;100111.16;5001212;28;20390;-75
2021/12/24 08:57:18;;;;;;;12.68;7.88;;;;;;;13.18;56.24;100102.81;5030393;28;20049;-75
2021/12/24 08:59:45;;;;;;;15.02;8.90;;;;;;;13.19;56.20;100099.09;5035474;28;20041;-75
2021/12/24 09:02:16;;;;;;;13.52;7.88;;;;;;;13.19;56.48;100097.22;5041592;28;20575;-76
2021/12/24 09:04:43;;;;;;;15.32;7.72;;;;;;;13.21;56.31;100100.69;5036975;28;20402;-76
2021/12/24 09:07:10;;;;;;;12.35;7.38;;;;;;;13.21;56.25;100100.69;5030777;28;20100;-77
2021/12/24 09:09:37;;;;;;;13.27;6.88;;;;;;;13.22;56.29;100090.63;5036161;28;20049;-77
2021/12/24 09:12:04;;;;;;;15.05;7.88;;;;;;;13.23;55.76;100085.06;5025279;28;20053;-76
2021/12/24 09:14:31;;;;;;;13.20;7.68;;;;;;;13.22;56.01;100077.88;5031896;28;20041;-76
2021/12/24 09:17:00;;;;;;;13.15;7.35;;;;;;;13.24;56.14;100073.16;5043994;28;20273;-76
2021/12/24 09:19:28;;;;;;;10.07;6.65;;;;;;;13.22;56.10;100074.28;5030281;28;20373;-76
2021/12/24 09:21:57;;;;;;;10.73;6.72;;;;;;;13.22;56.22;100077.00;5032495;28;20489;-76
2021/12/24 09:24:26;;;;;;;13.57;7.35;;;;;;;13.23;55.98;100085.06;5032641;28;20107;-76
2021/12/24 09:26:56;;;;;;;13.55;6.88;;;;;;;13.23;56.05;100084.19;5034494;28;20587;-76
2021/12/24 09:29:24;;;;;;;14.82;7.30;;;;;;;13.24;56.31;100085.91;5031053;28;20033;-75
2021/12/24 09:31:51;;;;;;;12.10;6.63;;;;;;;13.24;55.94;100088.66;5030517;28;20541;-76
2021/12/24 09:34:21;;;;;;;15.32;7.10;;;;;;;13.27;56.32;100080.16;5028039;28;20065;-75
2021/12/24 09:36:48;;;;;;;11.80;6.82;;;;;;;13.26;56.32;100081.16;5023016;28;20045;-76
2021/12/24 09:39:16;;;;;;;12.32;6.85;;;;;;;13.26;55.93;100073.84;5045208;28;20128;-72
2021/12/24 09:41:43;;;;;;;12.80;7.40;;;;;;;13.29;56.15;100068.13;5041918;28;20046;-73
2021/12/24 09:44:11;;;;;;;14.07;6.65;;;;;;;13.29;56.14;100070.88;5029278;28;20182;-76
2021/12/24 09:46:42;;;;;;;12.93;6.72;;;;;;;13.32;56.06;100067.00;5045507;28;20258;-76
2021/12/24 09:49:13;;;;;;;12.95;6.57;;;;;;;13.33;55.80;100066.88;5027173;28;20045;-75
2021/12/24 09:51:46;;;;;;;13.57;6.78;;;;;;;13.31;55.87;100068.88;5021751;28;20550;-76
2021/12/24 09:54:20;;;;;;;11.45;6.70;;;;;;;13.36;55.77;100064.84;5015396;28;20069;-76
2021/12/24 09:56:49;;;;;;;10.18;6.40;;;;;;;13.32;55.58;100067.00;5027557;28;20053;-75
2021/12/24 09:59:16;;;;;;;11.32;6.80;;;;;;;13.29;55.89;100062.69;5029170;28;20153;-76
2021/12/24 10:01:51;;;;;;;10.40;6.35;;;;;;;13.32;56.00;100067.00;5032078;28;20046;-76
2021/12/24 10:04:20;;;;;;;11.30;6.47;;;;;;;13.29;55.86;100065.41;5030167;28;20041;-76
2021/12/24 10:06:56;;;;;;;9.93;5.82;;;;;;;13.32;56.00;100064.28;5010894;28;20077;-77
2021/12/24 10:09:31;;;;;;;13.55;6.32;;;;;;;13.30;56.05;100061.69;5023906;28;20042;-77
2021/12/24 10:12:02;;;;;;;14.13;6.15;;;;;;;13.32;56.21;100069.72;5026979;28;20543;-77
2021/12/24 10:14:37;;;;;;;11.93;6.57;;;;;;;13.33;56.11;100066.88;5027956;28;20044;-76
2021/12/24 10:17:12;;;;;;;10.80;6.07;;;;;;;13.34;56.21;100068.56;5026936;28;20045;-77
2021/12/24 10:19:48;;;;;;;10.35;6.53;;;;;;;13.38;56.03;100079.22;5032534;28;20041;-77
2021/12/24 10:22:16;;;;;;;12.05;6.25;;;;;;;13.37;55.93;100069.31;5037564;28;20076;-77
2021/12/24 10:24:56;;;;;;;11.57;6.32;;;;;;;13.38;55.83;100069.16;5030519;28;20069;-77
2021/12/24 10:27:27;;;;;;;8.82;5.85;;;;;;;13.40;56.01;100063.59;5030169;28;20072;-78
2021/12/24 10:29:54;;;;;;;9.60;5.85;;;;;;;13.38;55.61;100073.75;5032045;28;20049;-77
2021/12/24 10:32:22;;;;;;;11.30;5.88;;;;;;;13.39;55.97;100072.75;5030498;28;20064;-78
2021/12/24 10:34:48;;;;;;;10.68;5.75;;;;;;;13.40;55.67;100075.34;5030659;28;20505;-77
2021/12/24 10:37:23;;;;;;;11.10;6.25;;;;;;;13.43;55.78;100074.19;5028561;28;20045;-77
2021/12/24 10:39:55;;;;;;;12.25;6.03;;;;;;;13.42;55.58;100062.44;5034980;28;20148;-77
2021/12/24 10:42:39;;;;;;;12.73;5.88;;;;;;;13.44;55.83;100073.19;5033976;28;20139;-77
2021/12/24 10:45:17;;;;;;;15.65;6.20;;;;;;;13.43;55.56;100064.16;5035688;28;20481;-76
2021/12/24 10:47:44;;;;;;;11.18;5.80;;;;;;;13.42;55.62;100069.75;5028402;28;20053;-76
2021/12/24 10:53:17;;;;;;;11.93;6.43;;;;;;;13.44;55.70;100063.16;5029437;28;20111;-76
2021/12/24 10:55:47;;;;;;;9.63;6.03;;;;;;;13.42;55.46;100064.31;5025657;28;20546;-77
2021/12/24 10:58:18;;;;;;;10.82;6.18;;;;;;;13.44;55.36;100063.16;5029497;28;20186;-77
2021/12/24 11:00:51;;;;;;;13.40;6.90;;;;;;;13.47;55.43;100070.19;5034284;28;20045;-77
2021/12/24 11:03:25;;;;;;;12.45;6.65;;;;;;;13.49;55.56;100065.47;5029279;28;20037;-77
2021/12/24 11:06:02;;;;;;;11.55;6.80;;;;;;;13.46;55.46;100069.34;5024773;28;20402;-77
2021/12/24 11:08:30;;;;;;;12.90;6.78;;;;;;;13.46;55.84;100065.75;5022991;28;20479;-77
2021/12/24 11:11:00;;;;;;;11.82;7.10;;;;;;;13.47;55.60;100060.16;5028928;28;20053;-77
2021/12/24 11:13:39;;;;;;;11.57;6.57;;;;;;;13.47;56.02;100065.59;5027524;28;20413;-77
2021/12/24 11:16:10;;;;;;;11.85;6.07;;;;;;;13.49;55.79;100069.06;5026357;28;20054;-76
2021/12/24 11:18:40;;;;;;;12.70;6.70;;;;;;;13.52;55.86;100068.75;5029205;28;20037;-77
2021/12/24 11:21:10;;;;;;;12.45;6.95;;;;;;;13.50;55.68;100062.59;5029514;28;20561;-77
2021/12/24 11:23:40;;;;;;;11.07;5.90;;;;;;;13.54;55.59;100064.03;5027772;28;20037;-76
2021/12/24 11:26:13;;;;;;;10.18;6.15;;;;;;;13.59;55.49;100036.31;5030202;28;20516;-76
2021/12/24 11:28:41;;;;;;;9.75;5.72;;;;;;;13.57;55.57;100058.31;5028590;28;20068;-76
2021/12/24 11:31:10;;;;;;;11.35;6.07;;;;;;;13.57;55.80;100061.03;5025376;28;20139;-76
2021/12/24 11:33:39;;;;;;;11.38;5.82;;;;;;;13.62;55.91;100056.00;5025673;28;20522;-76
2021/12/24 11:36:08;;;;;;;10.75;6.25;;;;;;;13.64;55.98;100055.88;5016470;28;20069;-76
2021/12/24 11:38:37;;;;;;;11.35;6.57;;;;;;;13.66;55.50;100048.41;5026906;28;20045;-77
2021/12/24 11:41:06;;;;;;;10.10;6.43;;;;;;;13.67;55.72;100050.16;5021389;28;20535;-76
2021/12/24 11:43:37;;;;;;;11.07;6.00;;;;;;;13.71;55.44;100046.13;5028052;28;20049;-76
2021/12/24 11:46:07;;;;;;;11.05;6.10;;;;;;;13.70;55.29;100041.66;5025898;28;20069;-77
2021/12/24 11:48:36;;;;;;;9.48;5.65;;;;;;;13.72;55.48;100042.38;5029460;28;20052;-77
2021/12/24 11:51:27;;;;;;;10.73;6.25;;;;;;;13.75;55.06;100039.38;5016468;28;20554;-77
2021/12/24 11:54:00;;;;;;;12.80;6.38;;;;;;;13.75;55.03;100044.84;5025757;28;20264;-77
2021/12/24 11:56:28;;;;;;;10.52;6.40;;;;;;;13.73;55.27;100027.75;5031850;28;20037;-77
2021/12/24 11:58:58;;;;;;;11.05;6.75;;;;;;;13.77;55.22;100022.84;5029711;28;20544;-77
2021/12/24 12:01:30;;;;;;;12.85;6.75;;;;;;;13.76;55.01;100021.97;5030059;28;20041;-77
2021/12/24 12:03:58;;;;;;;11.70;6.13;;;;;;;13.72;55.29;100036.94;5024440;28;20529;-77
2021/12/24 12:06:25;;;;;;;12.50;7.00;;;;;;;13.76;54.86;100034.75;5009778;28;20099;-76
2021/12/24 12:08:53;;;;;;;11.98;6.47;;;;;;;13.78;54.76;100040.94;5030920;28;20049;-77
2021/12/24 12:11:26;;;;;;;10.43;5.80;;;;;;;13.76;55.07;100041.09;5027092;28;20076;-77
2021/12/24 12:13:59;;;;;;;12.07;6.72;;;;;;;13.77;55.00;100039.22;5030102;28;20086;-74
2021/12/24 12:16:50;;;;;;;11.70;6.35;;;;;;;13.76;55.19;100038.34;5030688;28;20088;-77
2021/12/24 12:25:13;;;;;;;10.17;6.70;;;;;;;13.75;54.63;100035.78;5028447;28;20065;-75
2021/12/24 12:27:44;;;;;;;10.90;6.28;;;;;;;13.74;54.81;100039.53;5026558;28;20122;-75
2021/12/24 12:30:17;;;;;;;11.88;6.05;;;;;;;13.76;54.89;100042.94;5031914;28;20060;-75
2021/12/24 12:32:44;;;;;;;13.07;6.53;;;;;;;13.75;54.80;100042.13;5028398;28;20045;-77
2021/12/24 12:35:12;;;;;;;9.95;6.28;;;;;;;13.75;55.16;100036.66;5029740;28;20157;-74
2021/12/24 12:37:54;;;;;;;9.45;6.10;;;;;;;13.78;54.78;100044.53;5029519;28;20046;-75
2021/12/24 12:40:22;;;;;;;9.48;5.65;;;;;;;13.73;55.04;100037.78;5031181;28;20566;-74
2021/12/24 12:42:52;;;;;;;10.65;5.57;;;;;;;13.74;54.78;100031.34;5029037;28;20103;-75
2021/12/24 12:45:20;;;;;;;10.68;5.97;;;;;;;13.77;54.77;100037.34;5027277;28;20072;-75
2021/12/24 12:47:59;;;;;;;11.00;5.97;;;;;;;13.79;54.81;100034.50;5028801;28;20420;-75
2021/12/24 12:50:28;;;;;;;12.55;6.05;;;;;;;13.78;54.78;100024.56;5029642;28;20111;-75
2021/12/24 12:53:31;;;;;;;10.23;6.20;;;;;;;13.77;54.76;100028.31;5028440;28;20160;-75
2021/12/24 12:56:30;;;;;;;15.23;5.50;;;;;;;13.76;54.87;100021.97;4981300;28;20045;-75
2021/12/24 12:59:19;;;;;;;9.57;5.28;;;;;;;13.76;54.80;100021.97;5021600;28;20049;-75
2021/12/24 13:01:52;;;;;;;8.90;5.35;;;;;;;13.81;54.83;100029.75;5029185;28;20045;-75
2021/12/24 13:04:19;;;;;;;;;;;;;;;13.56;55.40;100028.44;5029739;28;20045;-75
2021/12/24 13:06:51;;;;;;;10.60;5.20;;;;;;;13.77;54.80;100022.84;5027282;28;20341;-75
2021/12/24 13:09:32;;;;;;;10.50;5.28;;;;;;;13.80;54.67;100028.91;5041327;28;20080;-75
2021/12/24 13:12:01;;;;;;;9.48;5.53;;;;;;;13.78;54.88;100028.16;5027699;28;20045;-75